createdAt,value
2023-05-06T00:00:24.836Z,11.83
2023-05-06T00:02:52.940Z,15.00
2023-05-06T00:05:21.011Z,11.53
2023-05-06T00:07:49.092Z,12.00
2023-05-06T00:10:17.146Z,12.17
2023-05-06T00:12:45.262Z,11.07
2023-05-06T00:15:14.777Z,11.53
2023-05-06T00:17:42.901Z,12.47
2023-05-06T00:20:11.504Z,11.07
2023-05-06T00:22:39.618Z,12.73
2023-05-06T00:25:08.578Z,11.30
2023-05-06T00:27:36.792Z,11.70
2023-05-06T00:30:05.440Z,11.53
2023-05-06T00:32:34.991Z,10.80
2023-05-06T00:35:03.462Z,11.53
2023-05-06T00:37:31.632Z,10.40
2023-05-06T00:39:59.743Z,11.10
2023-05-06T00:42:27.871Z,11.77
2023-05-06T00:44:55.969Z,12.33
2023-05-06T00:47:24.304Z,10.77
2023-05-06T00:50:01.483Z,11.10
2023-05-06T00:52:29.800Z,10.53
2023-05-06T00:54:58.008Z,11.27
2023-05-06T00:57:26.124Z,11.00
2023-05-06T00:59:54.356Z,10.10
2023-05-06T01:04:51.756Z,10.10
2023-05-06T01:07:27.879Z,9.57
2023-05-06T01:09:58.751Z,10.27
2023-05-06T01:12:30.595Z,9.90
2023-05-06T01:15:06.536Z,10.23
2023-05-06T01:17:35.248Z,9.90
2023-05-06T01:20:05.131Z,10.50
2023-05-06T01:22:34.706Z,10.10
2023-05-06T01:25:04.204Z,10.30
2023-05-06T01:27:34.891Z,10.83
2023-05-06T01:30:03.984Z,10.30
2023-05-06T01:32:37.493Z,10.40
2023-05-06T01:35:11.091Z,11.33
2023-05-06T01:37:43.297Z,9.27
2023-05-06T01:40:12.782Z,11.50
2023-05-06T01:42:40.870Z,11.40
2023-05-06T01:45:12.274Z,10.00
2023-05-06T01:47:41.069Z,12.37
2023-05-06T01:50:09.688Z,15.80
2023-05-06T01:52:37.805Z,14.33
2023-05-06T01:55:07.207Z,13.03
2023-05-06T01:57:36.949Z,14.90
2023-05-06T02:00:05.742Z,13.97
2023-05-06T02:02:33.973Z,12.67
2023-05-06T02:05:02.122Z,15.03
2023-05-06T02:07:30.300Z,14.83
2023-05-06T02:09:58.323Z,13.40
2023-05-06T02:12:26.413Z,12.80
2023-05-06T02:14:56.554Z,13.53
2023-05-06T02:17:24.931Z,12.20
2023-05-06T02:19:53.064Z,13.10
2023-05-06T02:22:21.167Z,14.60
2023-05-06T02:24:49.227Z,13.03
2023-05-06T02:27:17.303Z,13.17
2023-05-06T02:29:45.348Z,13.50
2023-05-06T02:32:14.874Z,13.60
2023-05-06T02:34:42.930Z,13.93
2023-05-06T02:37:11.002Z,14.43
2023-05-06T02:39:39.074Z,16.83
2023-05-06T02:42:07.415Z,13.50
2023-05-06T02:44:35.717Z,13.33
2023-05-06T02:47:03.974Z,18.53
2023-05-06T02:49:33.562Z,13.90
2023-05-06T02:52:01.596Z,16.50
2023-05-06T02:54:29.711Z,15.90
2023-05-06T02:56:57.780Z,13.80
2023-05-06T02:59:26.659Z,15.10
2023-05-06T03:01:54.740Z,14.83
2023-05-06T03:04:23.085Z,14.47
2023-05-06T03:06:52.617Z,13.90
2023-05-06T03:09:20.729Z,14.17
2023-05-06T03:11:49.988Z,12.83
2023-05-06T03:14:18.045Z,21.27
2023-05-06T03:16:46.168Z,12.70
2023-05-06T03:19:14.261Z,17.07
2023-05-06T03:21:42.409Z,13.87
2023-05-06T03:24:12.092Z,14.70
2023-05-06T03:26:40.193Z,14.17
2023-05-06T03:29:08.276Z,14.70
2023-05-06T03:31:36.404Z,13.30
2023-05-06T03:34:04.512Z,12.17
2023-05-06T03:36:33.209Z,13.73
2023-05-06T03:39:01.309Z,13.93
2023-05-06T03:41:31.025Z,12.20
2023-05-06T03:43:59.087Z,14.50
2023-05-06T03:46:27.308Z,14.93
2023-05-06T03:48:56.707Z,12.67
2023-05-06T03:51:24.764Z,14.00
2023-05-06T03:53:54.765Z,13.20
2023-05-06T03:56:37.369Z,12.70
2023-05-06T03:59:10.100Z,14.73
2023-05-06T04:01:38.204Z,14.10
2023-05-06T04:04:06.674Z,12.47
2023-05-06T04:06:34.917Z,13.70
2023-05-06T04:09:04.379Z,11.97
2023-05-06T04:11:32.482Z,11.50
2023-05-06T04:14:01.091Z,13.90
2023-05-06T04:16:30.569Z,14.00
2023-05-06T04:18:58.728Z,12.50
2023-05-06T04:21:26.878Z,13.37
2023-05-06T04:23:55.005Z,11.60
2023-05-06T04:26:23.130Z,12.20
2023-05-06T04:28:51.607Z,11.10
2023-05-06T04:31:19.728Z,13.20
2023-05-06T04:33:49.274Z,10.20
2023-05-06T04:36:17.412Z,10.03
2023-05-06T04:38:45.483Z,9.67
2023-05-06T04:41:14.080Z,9.93
2023-05-06T04:43:42.497Z,10.70
2023-05-06T04:46:10.741Z,11.70
2023-05-06T04:48:39.005Z,10.13
2023-05-06T04:51:09.419Z,9.53
2023-05-06T04:53:37.514Z,9.50
2023-05-06T04:56:05.894Z,10.50
2023-05-06T04:58:33.977Z,10.27
2023-05-06T05:01:04.887Z,10.83
2023-05-06T05:03:33.114Z,9.87
2023-05-06T05:06:01.338Z,10.40
2023-05-06T05:08:30.767Z,10.57
2023-05-06T05:10:58.869Z,10.53
2023-05-06T05:13:27.054Z,11.17
2023-05-06T05:15:56.145Z,10.23
2023-05-06T05:18:24.408Z,9.90
2023-05-06T05:20:52.701Z,12.50
2023-05-06T05:23:20.828Z,10.67
2023-05-06T05:25:50.257Z,10.37
2023-05-06T05:28:18.321Z,11.07
2023-05-06T05:30:46.467Z,10.77
2023-05-06T05:33:14.653Z,10.40
2023-05-06T05:35:45.575Z,10.17
2023-05-06T05:38:14.376Z,10.60
2023-05-06T05:40:42.460Z,11.53
2023-05-06T05:43:11.934Z,10.57
2023-05-06T05:45:40.046Z,11.30
2023-05-06T05:48:08.120Z,10.97
2023-05-06T05:50:36.158Z,8.93
2023-05-06T05:53:04.206Z,12.60
2023-05-06T05:55:32.320Z,15.60
2023-05-06T05:58:02.729Z,11.90
2023-05-06T06:00:32.345Z,10.57
2023-05-06T06:03:00.733Z,10.20
2023-05-06T06:05:29.101Z,11.33
2023-05-06T06:07:57.162Z,10.70
2023-05-06T06:10:25.249Z,10.00
2023-05-06T06:12:53.369Z,8.60
2023-05-06T06:15:21.515Z,10.27
2023-05-06T06:17:50.980Z,10.10
2023-05-06T06:20:19.494Z,11.03
2023-05-06T06:22:47.568Z,9.70
2023-05-06T06:25:21.579Z,8.73
2023-05-06T06:27:49.747Z,11.13
2023-05-06T06:30:17.860Z,9.27
2023-05-06T06:32:50.687Z,10.73
2023-05-06T06:35:19.919Z,7.07
2023-05-06T06:37:48.058Z,9.67
2023-05-06T06:40:16.438Z,10.30
2023-05-06T06:42:44.567Z,12.37
2023-05-06T06:45:14.232Z,9.70
2023-05-06T06:47:42.402Z,10.00
2023-05-06T06:50:12.592Z,8.40
2023-05-06T06:52:40.678Z,9.53
2023-05-06T06:55:10.211Z,10.37
2023-05-06T06:57:41.586Z,11.30
2023-05-06T07:00:10.665Z,10.77
2023-05-06T07:02:38.855Z,11.63
2023-05-06T07:05:07.853Z,9.53
2023-05-06T07:07:37.469Z,9.10
2023-05-06T07:11:32.572Z,10.10
2023-05-06T07:13:34.594Z,10.03
2023-05-06T07:16:02.662Z,9.43
2023-05-06T07:18:30.781Z,11.57
2023-05-06T07:21:02.807Z,9.80
2023-05-06T07:23:32.383Z,10.33
2023-05-06T07:26:00.761Z,9.27
2023-05-06T07:28:28.852Z,9.40
2023-05-06T07:30:59.991Z,10.53
2023-05-06T07:33:28.159Z,7.10
2023-05-06T07:35:56.210Z,5.23
2023-05-06T07:38:24.946Z,4.87
2023-05-06T07:40:54.380Z,4.23
2023-05-06T07:43:23.343Z,3.87
2023-05-06T07:45:51.424Z,4.33
2023-05-06T07:48:20.277Z,4.50
2023-05-06T07:50:48.499Z,4.90
2023-05-06T07:53:16.540Z,4.30
2023-05-06T07:55:44.694Z,3.80
2023-05-06T07:58:14.173Z,3.80
2023-05-06T08:00:42.302Z,3.60
2023-05-06T08:03:10.465Z,4.47
2023-05-06T08:05:38.590Z,3.70
2023-05-06T08:08:06.767Z,3.90
2023-05-06T08:10:35.053Z,4.70
2023-05-06T08:13:03.349Z,4.40
2023-05-06T08:15:32.804Z,4.00
2023-05-06T08:18:13.731Z,4.07
2023-05-06T08:21:00.249Z,3.90
2023-05-06T08:23:28.272Z,3.87
2023-05-06T08:25:56.338Z,3.60
2023-05-06T08:28:25.266Z,4.00
2023-05-06T08:30:54.897Z,3.97
2023-05-06T08:33:22.981Z,3.70
2023-05-06T08:35:51.185Z,3.30
2023-05-06T08:38:19.222Z,3.97
2023-05-06T08:40:47.279Z,3.77
2023-05-06T08:43:15.513Z,3.77
2023-05-06T08:45:43.749Z,3.60
2023-05-06T08:48:13.222Z,3.20
2023-05-06T08:50:43.431Z,3.73
2023-05-06T08:53:12.647Z,3.47
2023-05-06T08:55:41.940Z,3.47
2023-05-06T08:58:10.068Z,3.70
2023-05-06T09:00:38.223Z,3.30
2023-05-06T09:03:06.400Z,3.90
2023-05-06T09:05:36.036Z,3.63
2023-05-06T09:08:04.160Z,3.20
2023-05-06T09:10:39.586Z,3.43
2023-05-06T09:13:07.728Z,2.90
2023-05-06T09:15:41.196Z,3.20
2023-05-06T09:18:09.483Z,3.57
2023-05-06T09:20:41.491Z,4.60
2023-05-06T09:23:10.192Z,3.53
2023-05-06T09:25:38.330Z,3.10
2023-05-06T09:28:06.718Z,3.23
2023-05-06T09:30:34.900Z,2.50
2023-05-06T09:33:04.869Z,3.03
2023-05-06T09:35:39.410Z,3.40
2023-05-06T09:38:07.636Z,3.07
2023-05-06T09:40:36.126Z,3.50
2023-05-06T09:43:07.827Z,2.90
2023-05-06T09:45:36.464Z,3.00
2023-05-06T09:48:05.093Z,2.60
2023-05-06T09:50:33.911Z,3.30
2023-05-06T09:53:04.363Z,2.83
2023-05-06T09:55:32.444Z,3.33
2023-05-06T09:58:01.656Z,2.73
2023-05-06T10:00:30.040Z,2.63
2023-05-06T10:02:58.339Z,2.40
2023-05-06T10:05:26.686Z,3.40
2023-05-06T10:07:54.850Z,2.33
2023-05-06T10:10:28.952Z,3.13
2023-05-06T10:12:57.230Z,2.60
2023-05-06T10:15:25.485Z,2.83
2023-05-06T10:17:53.638Z,2.90
2023-05-06T10:20:22.232Z,2.50
2023-05-06T10:22:54.358Z,2.60
2023-05-06T10:25:25.162Z,2.73
2023-05-06T10:27:54.670Z,2.40
2023-05-06T10:30:23.066Z,2.70
2023-05-06T10:32:51.319Z,2.73
2023-05-06T10:35:21.725Z,5.50
2023-05-06T10:37:50.734Z,2.50
2023-05-06T10:40:18.900Z,2.50
2023-05-06T10:42:47.015Z,2.30
2023-05-06T10:45:16.673Z,2.50
2023-05-06T10:48:18.390Z,2.53
2023-05-06T10:50:46.875Z,2.27
2023-05-06T10:53:15.007Z,2.00
2023-05-06T10:55:43.069Z,2.37
2023-05-06T10:58:14.828Z,2.50
2023-05-06T11:00:44.479Z,2.13
2023-05-06T11:03:13.454Z,2.60
2023-05-06T11:05:51.737Z,2.30
2023-05-06T11:08:23.306Z,2.20
2023-05-06T11:10:51.764Z,2.13
2023-05-06T11:13:24.558Z,3.00
2023-05-06T11:15:54.094Z,2.57
2023-05-06T11:18:44.245Z,2.40
2023-05-06T11:21:40.176Z,2.10
2023-05-06T11:24:09.922Z,2.20
2023-05-06T11:26:38.019Z,2.00
2023-05-06T11:29:07.212Z,2.00
2023-05-06T11:31:43.111Z,2.43
2023-05-06T11:34:16.118Z,5.70
2023-05-06T11:36:52.312Z,2.17
2023-05-06T11:39:21.080Z,3.10
2023-05-06T11:41:49.261Z,2.80
2023-05-06T11:44:37.521Z,3.33
2023-05-06T11:47:08.241Z,2.13
2023-05-06T11:49:41.160Z,1.90
2023-05-06T11:52:09.661Z,2.20
2023-05-06T11:54:39.647Z,1.90
2023-05-06T11:57:07.751Z,1.87
2023-05-06T11:59:37.530Z,2.10
2023-05-06T12:02:07.724Z,3.13
2023-05-06T12:04:39.726Z,2.00
2023-05-06T12:07:08.334Z,2.07
2023-05-06T12:09:37.069Z,1.70
2023-05-06T12:12:05.656Z,1.70
2023-05-06T12:14:33.829Z,2.13
2023-05-06T12:17:01.956Z,2.27
2023-05-06T12:19:31.661Z,1.50
2023-05-06T12:22:18.069Z,1.60
2023-05-06T12:24:46.286Z,1.80
2023-05-06T12:27:31.797Z,1.60
2023-05-06T12:30:00.608Z,1.60
2023-05-06T12:32:28.785Z,2.17
2023-05-06T12:34:59.523Z,1.77
2023-05-06T12:37:29.253Z,1.70
2023-05-06T12:39:59.066Z,1.83
2023-05-06T12:42:27.694Z,1.60
2023-05-06T12:44:55.827Z,1.30
2023-05-06T12:47:24.912Z,1.83
2023-05-06T12:50:07.873Z,1.73
2023-05-06T12:52:40.247Z,2.00
2023-05-06T12:55:08.941Z,4.20
2023-05-06T12:57:37.359Z,1.30
2023-05-06T13:00:07.449Z,1.97
2023-05-06T13:02:35.611Z,1.60
2023-05-06T13:05:05.651Z,1.60
2023-05-06T13:07:33.785Z,1.60
2023-05-06T13:10:03.231Z,1.63
2023-05-06T13:12:31.344Z,1.70
2023-05-06T13:14:59.519Z,2.10
2023-05-06T13:17:27.749Z,1.60
2023-05-06T13:19:56.987Z,1.50
2023-05-06T13:22:26.427Z,2.00
2023-05-06T13:24:54.584Z,1.50
2023-05-06T13:27:22.666Z,1.47
2023-05-06T13:29:51.152Z,1.70
2023-05-06T13:35:05.777Z,1.53
2023-05-06T13:37:35.289Z,1.80
2023-05-06T13:40:03.538Z,1.40
2023-05-06T13:42:31.689Z,1.60
2023-05-06T13:44:59.769Z,1.40
2023-05-06T13:47:33.283Z,1.50
2023-05-06T13:50:03.713Z,1.60
2023-05-06T13:52:31.874Z,1.63
2023-05-06T13:55:01.603Z,2.20
2023-05-06T13:57:29.726Z,3.17
2023-05-06T13:59:57.828Z,1.73
2023-05-06T14:02:26.560Z,4.03
2023-05-06T14:05:02.057Z,1.77
2023-05-06T14:07:30.208Z,2.73
2023-05-06T14:09:58.919Z,1.73
2023-05-06T14:12:28.409Z,1.67
2023-05-06T14:14:56.515Z,1.50
2023-05-06T14:17:24.644Z,1.47
2023-05-06T14:19:52.809Z,2.20
2023-05-06T14:22:20.894Z,1.60
2023-05-06T14:24:48.978Z,1.50
2023-05-06T14:27:17.104Z,1.77
2023-05-06T14:29:46.608Z,1.53
2023-05-06T14:32:14.716Z,1.87
2023-05-06T14:34:42.797Z,1.43
2023-05-06T14:37:10.987Z,2.07
2023-05-06T14:39:39.060Z,2.37
2023-05-06T14:42:07.238Z,1.30
2023-05-06T14:44:35.722Z,1.53
2023-05-06T14:47:05.224Z,1.70
2023-05-06T14:49:33.316Z,1.67
2023-05-06T14:52:01.542Z,1.37
2023-05-06T14:54:43.441Z,1.70
2023-05-06T14:57:11.636Z,1.90
2023-05-06T14:59:39.716Z,1.77
2023-05-06T15:02:09.869Z,1.57
2023-05-06T15:04:38.115Z,1.67
2023-05-06T15:07:06.314Z,1.73
2023-05-06T15:09:34.429Z,1.97
2023-05-06T15:12:03.296Z,1.50
2023-05-06T15:14:31.385Z,1.80
2023-05-06T15:16:59.517Z,1.43
2023-05-06T15:19:29.140Z,1.40
2023-05-06T15:21:57.230Z,1.50
2023-05-06T15:24:26.124Z,1.77
2023-05-06T15:26:54.660Z,1.50
2023-05-06T15:29:22.736Z,1.50
2023-05-06T15:31:50.857Z,1.70
2023-05-06T15:34:20.790Z,1.80
2023-05-06T15:36:53.448Z,1.90
2023-05-06T15:39:21.538Z,1.90
2023-05-06T15:41:49.668Z,1.60
2023-05-06T15:44:20.653Z,1.30
2023-05-06T15:46:51.218Z,1.77
2023-05-06T15:49:47.463Z,2.00
2023-05-06T15:52:08.760Z,1.50
2023-05-06T15:54:37.488Z,1.63
2023-05-06T15:57:07.088Z,1.73
2023-05-06T15:59:35.287Z,1.90
2023-05-06T16:04:34.961Z,1.73
2023-05-06T16:07:03.293Z,2.00
2023-05-06T16:09:32.752Z,1.63
2023-05-06T16:12:01.375Z,3.03
2023-05-06T16:14:29.459Z,1.20
2023-05-06T16:16:57.584Z,1.73
2023-05-06T16:19:26.094Z,1.90
2023-05-06T16:21:54.479Z,2.17
2023-05-06T16:24:22.583Z,2.40
2023-05-06T16:26:52.088Z,1.73
2023-05-06T16:29:20.753Z,2.77
2023-05-06T16:31:49.094Z,2.23
2023-05-06T16:34:17.205Z,1.20
2023-05-06T16:36:45.976Z,2.60
2023-05-06T16:39:14.106Z,1.20
2023-05-06T16:41:42.618Z,1.23
2023-05-06T16:44:12.070Z,1.60
2023-05-06T16:46:40.211Z,1.80
2023-05-06T16:49:08.458Z,1.30
2023-05-06T16:51:43.826Z,1.50
2023-05-06T16:54:11.927Z,1.70
2023-05-06T16:56:50.749Z,1.20
2023-05-06T16:59:22.413Z,1.40
2023-05-06T17:01:50.961Z,1.63
2023-05-06T17:04:19.103Z,1.40
2023-05-06T17:06:47.417Z,1.63
2023-05-06T17:09:21.765Z,1.30
2023-05-06T17:11:52.851Z,1.20
2023-05-06T17:14:22.797Z,1.10
2023-05-06T17:16:52.014Z,1.43
2023-05-06T17:19:20.146Z,1.40
2023-05-06T17:21:48.187Z,1.40
2023-05-06T17:24:16.247Z,2.20
2023-05-06T17:26:44.392Z,1.20
2023-05-06T17:29:26.121Z,1.50
2023-05-06T17:32:06.360Z,1.53
2023-05-06T17:34:39.036Z,1.67
2023-05-06T17:37:07.392Z,1.50
2023-05-06T17:39:36.342Z,1.60
2023-05-06T17:42:04.407Z,1.57
2023-05-06T17:44:35.361Z,1.20
2023-05-06T17:47:06.319Z,1.40
2023-05-06T17:49:34.554Z,1.70
2023-05-06T17:52:02.627Z,1.47
2023-05-06T17:54:32.298Z,1.53
2023-05-06T17:57:00.985Z,1.50
2023-05-06T17:59:29.198Z,1.83
2023-05-06T18:01:58.708Z,1.83
2023-05-06T18:04:29.888Z,2.00
2023-05-06T18:06:57.979Z,1.60
2023-05-06T18:09:26.187Z,1.87
2023-05-06T18:11:57.480Z,1.50
2023-05-06T18:14:25.564Z,1.80
2023-05-06T18:16:53.682Z,2.10
2023-05-06T18:19:23.226Z,1.90
2023-05-06T18:21:51.284Z,1.40
2023-05-06T18:24:19.508Z,1.87
2023-05-06T18:26:47.570Z,1.40
2023-05-06T18:29:15.623Z,1.70
2023-05-06T18:31:43.817Z,2.30
2023-05-06T18:34:12.034Z,2.40
2023-05-06T18:36:41.486Z,2.00
2023-05-06T18:39:09.561Z,1.80
2023-05-06T18:41:37.666Z,1.90
2023-05-06T18:44:06.117Z,2.77
2023-05-06T18:46:34.474Z,2.27
2023-05-06T18:49:02.615Z,2.00
2023-05-06T18:51:32.023Z,2.30
2023-05-06T18:54:01.570Z,2.60
2023-05-06T18:56:29.827Z,2.10
2023-05-06T18:58:57.990Z,2.37
2023-05-06T19:01:26.301Z,2.87
2023-05-06T19:03:54.555Z,3.10
2023-05-06T19:06:22.694Z,2.40
2023-05-06T19:08:58.300Z,2.80
2023-05-06T19:11:27.751Z,2.90
2023-05-06T19:13:55.939Z,2.53
2023-05-06T19:16:24.095Z,2.10
2023-05-06T19:18:52.338Z,2.90
2023-05-06T19:21:20.385Z,2.40
2023-05-06T19:23:48.497Z,3.13
2023-05-06T19:26:18.981Z,2.80
2023-05-06T19:28:48.750Z,4.50
2023-05-06T19:31:16.930Z,2.63
2023-05-06T19:33:45.009Z,2.57
2023-05-06T19:36:13.102Z,2.87
2023-05-06T19:38:41.213Z,3.17
2023-05-06T19:41:10.692Z,2.90
2023-05-06T19:43:42.167Z,2.20
2023-05-06T19:46:11.744Z,2.67
2023-05-06T19:48:39.965Z,2.30
2023-05-06T19:51:08.222Z,2.40
2023-05-06T19:53:37.158Z,3.10
2023-05-06T19:56:11.733Z,2.93
2023-05-06T19:58:49.232Z,2.70
2023-05-06T20:01:22.444Z,3.80
2023-05-06T20:03:50.679Z,3.10
2023-05-06T20:06:18.827Z,3.20
2023-05-06T20:08:46.993Z,3.30
2023-05-06T20:11:15.136Z,3.33
2023-05-06T20:13:43.257Z,3.47
2023-05-06T20:16:25.270Z,4.70
2023-05-06T20:18:55.474Z,3.60
2023-05-06T20:21:23.563Z,5.50
2023-05-06T20:23:51.660Z,3.77
2023-05-06T20:26:19.738Z,3.57
2023-05-06T20:28:47.771Z,4.40
2023-05-06T20:31:15.927Z,4.47
2023-05-06T20:33:44.321Z,3.23
2023-05-06T20:36:13.838Z,2.30
2023-05-06T20:38:41.885Z,3.93
2023-05-06T20:41:09.985Z,3.63
2023-05-06T20:43:38.110Z,4.70
2023-05-06T20:46:06.820Z,3.53
2023-05-06T20:48:35.058Z,3.90
2023-05-06T20:51:03.162Z,4.23
2023-05-06T20:53:32.814Z,4.07
2023-05-06T20:56:01.103Z,4.63
2023-05-06T20:58:29.648Z,4.50
2023-05-06T21:00:57.803Z,4.40
2023-05-06T21:03:27.185Z,4.33
2023-05-06T21:05:58.601Z,3.83
2023-05-06T21:08:29.800Z,4.70
2023-05-06T21:10:59.265Z,3.70
2023-05-06T21:13:27.388Z,5.33
2023-05-06T21:15:55.577Z,5.57
2023-05-06T21:18:23.886Z,4.17
2023-05-06T21:20:57.537Z,5.77
2023-05-06T21:23:25.726Z,5.30
2023-05-06T21:25:53.808Z,5.30
2023-05-06T21:28:23.362Z,6.23
2023-05-06T21:30:51.496Z,5.60
2023-05-06T21:33:19.600Z,5.03
2023-05-06T21:35:47.689Z,5.27
2023-05-06T21:38:15.895Z,6.00
2023-05-06T21:40:43.967Z,5.97
2023-05-06T21:43:12.747Z,5.20
2023-05-06T21:45:42.228Z,6.20
2023-05-06T21:48:10.623Z,6.30
2023-05-06T21:50:38.825Z,7.23
2023-05-06T21:53:06.931Z,6.00
2023-05-06T21:55:35.164Z,6.43
2023-05-06T21:58:06.271Z,6.17
2023-05-06T22:00:34.391Z,6.33
2023-05-06T22:03:11.108Z,5.10
2023-05-06T22:05:40.074Z,5.90
2023-05-06T22:08:08.130Z,6.20
2023-05-06T22:10:36.260Z,6.73
2023-05-06T22:13:04.422Z,4.03
2023-05-06T22:15:35.902Z,5.80
2023-05-06T22:18:05.561Z,5.37
2023-05-06T22:20:33.799Z,5.43
2023-05-06T22:23:01.916Z,5.70
2023-05-06T22:25:30.054Z,5.07
2023-05-06T22:27:58.264Z,7.00
2023-05-06T22:30:26.788Z,6.17
2023-05-06T22:32:54.910Z,6.63
2023-05-06T22:35:24.406Z,6.13
2023-05-06T22:37:52.503Z,6.10
2023-05-06T22:40:20.680Z,6.73
2023-05-06T22:42:49.125Z,6.00
2023-05-06T22:45:17.307Z,6.07
2023-05-06T22:47:45.431Z,7.37
2023-05-06T22:50:13.802Z,5.97
2023-05-06T22:52:43.286Z,4.97
2023-05-06T22:55:11.964Z,6.83
2023-05-06T22:57:40.297Z,6.47
2023-05-06T23:00:12.461Z,7.00
2023-05-06T23:02:40.968Z,6.97
2023-05-06T23:05:09.907Z,6.93
2023-05-06T23:07:38.818Z,9.97
2023-05-06T23:10:09.621Z,7.17
2023-05-06T23:12:37.745Z,6.60
2023-05-06T23:15:07.404Z,6.47
2023-05-06T23:17:35.578Z,5.80
2023-05-06T23:20:04.306Z,6.80
2023-05-06T23:22:32.429Z,6.80
2023-05-06T23:25:00.555Z,7.03
2023-05-06T23:27:30.044Z,7.13
2023-05-06T23:29:58.288Z,7.03
2023-05-06T23:32:27.734Z,8.10
2023-05-06T23:34:55.870Z,7.97
2023-05-06T23:37:31.949Z,8.57
2023-05-06T23:40:00.068Z,8.60
2023-05-06T23:42:29.607Z,11.47
2023-05-06T23:44:58.355Z,9.10
2023-05-06T23:47:26.537Z,9.53
2023-05-06T23:49:54.642Z,8.40
2023-05-06T23:52:22.745Z,9.47
2023-05-06T23:54:56.087Z,9.57
2023-05-06T23:57:24.185Z,10.63
2023-05-06T23:59:53.648Z,10.50
